Terminal Aerodrome Forecast
Issued by NWS Wilmington, NC

Home | Current Version | Previous Version | Text Only | Print | Product List | Glossary On
Versions: 1 2 3 4 5 6 7 8 9 10 11 12 13 14 15 16 17 18 19 20 21 22
000
FTUS42 KILM 030400 AAA
TAFLBT
TAF AMD
KLBT 030443Z 0305/0324 11010KT P6SM BKN009
     FM031300 08008KT P6SM VCSH OVC025
     FM031800 10008KT 5SM -RA BR BKN016=

USA.gov is the U.S. government's official web portal to all federal, state and local government web resources and services.